sensor_id;sensor_type;location;lat;lon;timestamp;P1;durP1;ratioP1;P2;durP2;ratioP2
49842;SDS011;55559;48.898;9.184;2022-07-18T00:01:41;3.00;;;0.68;;
49842;SDS011;55559;48.898;9.184;2022-07-18T00:04:09;3.53;;;0.55;;
49842;SDS011;55559;48.898;9.184;2022-07-18T00:06:36;3.80;;;0.60;;
49842;SDS011;55559;48.898;9.184;2022-07-18T00:09:03;7.30;;;0.70;;
49842;SDS011;55559;48.898;9.184;2022-07-18T00:11:30;5.35;;;0.50;;
49842;SDS011;55559;48.898;9.184;2022-07-18T00:13:57;5.78;;;0.63;;
49842;SDS011;55559;48.898;9.184;2022-07-18T00:16:24;8.70;;;0.50;;
49842;SDS011;55559;48.898;9.184;2022-07-18T00:18:51;5.70;;;0.50;;
49842;SDS011;55559;48.898;9.184;2022-07-18T00:21:21;5.55;;;0.47;;
49842;SDS011;55559;48.898;9.184;2022-07-18T00:23:48;3.75;;;0.60;;
49842;SDS011;55559;48.898;9.184;2022-07-18T00:26:14;1.75;;;0.60;;
49842;SDS011;55559;48.898;9.184;2022-07-18T00:28:41;3.85;;;0.60;;
49842;SDS011;55559;48.898;9.184;2022-07-18T00:31:08;6.50;;;0.60;;
49842;SDS011;55559;48.898;9.184;2022-07-18T00:33:35;3.20;;;0.70;;
49842;SDS011;55559;48.898;9.184;2022-07-18T00:36:02;10.23;;;0.75;;
49842;SDS011;55559;48.898;9.184;2022-07-18T00:38:30;2.40;;;0.60;;
49842;SDS011;55559;48.898;9.184;2022-07-18T00:40:57;6.10;;;0.70;;
49842;SDS011;55559;48.898;9.184;2022-07-18T00:43:24;7.32;;;0.70;;
49842;SDS011;55559;48.898;9.184;2022-07-18T00:45:50;3.90;;;0.80;;
49842;SDS011;55559;48.898;9.184;2022-07-18T00:48:18;2.95;;;0.63;;
49842;SDS011;55559;48.898;9.184;2022-07-18T00:50:45;5.05;;;0.60;;
49842;SDS011;55559;48.898;9.184;2022-07-18T00:53:13;9.68;;;0.70;;
49842;SDS011;55559;48.898;9.184;2022-07-18T00:55:45;8.70;;;0.60;;
49842;SDS011;55559;48.898;9.184;2022-07-18T00:58:12;2.45;;;0.60;;
49842;SDS011;55559;48.898;9.184;2022-07-18T01:00:40;5.90;;;0.70;;
49842;SDS011;55559;48.898;9.184;2022-07-18T01:03:26;4.00;;;0.65;;
49842;SDS011;55559;48.898;9.184;2022-07-18T01:05:53;10.35;;;0.40;;
49842;SDS011;55559;48.898;9.184;2022-07-18T01:08:20;4.45;;;0.68;;
49842;SDS011;55559;48.898;9.184;2022-07-18T01:10:48;2.33;;;0.60;;
49842;SDS011;55559;48.898;9.184;2022-07-18T01:13:16;2.45;;;0.50;;
49842;SDS011;55559;48.898;9.184;2022-07-18T01:15:43;2.72;;;0.60;;
49842;SDS011;55559;48.898;9.184;2022-07-18T01:18:10;1.27;;;0.50;;
49842;SDS011;55559;48.898;9.184;2022-07-18T01:20:38;4.28;;;0.60;;
49842;SDS011;55559;48.898;9.184;2022-07-18T01:23:05;12.15;;;0.73;;
49842;SDS011;55559;48.898;9.184;2022-07-18T01:25:32;2.92;;;0.50;;
49842;SDS011;55559;48.898;9.184;2022-07-18T01:27:59;3.65;;;0.65;;
49842;SDS011;55559;48.898;9.184;2022-07-18T01:30:26;2.30;;;0.70;;
49842;SDS011;55559;48.898;9.184;2022-07-18T01:32:56;3.20;;;0.70;;
49842;SDS011;55559;48.898;9.184;2022-07-18T01:35:25;3.50;;;0.63;;
49842;SDS011;55559;48.898;9.184;2022-07-18T01:37:55;1.20;;;0.55;;
49842;SDS011;55559;48.898;9.184;2022-07-18T01:40:23;3.42;;;0.70;;
49842;SDS011;55559;48.898;9.184;2022-07-18T01:42:51;3.55;;;1.13;;
49842;SDS011;55559;48.898;9.184;2022-07-18T01:45:18;2.92;;;0.60;;
49842;SDS011;55559;48.898;9.184;2022-07-18T01:47:45;7.40;;;0.57;;
49842;SDS011;55559;48.898;9.184;2022-07-18T01:50:12;3.88;;;0.55;;
49842;SDS011;55559;48.898;9.184;2022-07-18T01:52:40;1.42;;;0.50;;
49842;SDS011;55559;48.898;9.184;2022-07-18T01:55:09;1.92;;;0.50;;
49842;SDS011;55559;48.898;9.184;2022-07-18T01:57:36;6.85;;;0.60;;
49842;SDS011;55559;48.898;9.184;2022-07-18T02:00:04;9.57;;;1.38;;
49842;SDS011;55559;48.898;9.184;2022-07-18T02:02:33;7.63;;;0.70;;
49842;SDS011;55559;48.898;9.184;2022-07-18T02:05:00;3.13;;;0.65;;
49842;SDS011;55559;48.898;9.184;2022-07-18T02:07:28;5.40;;;1.10;;
49842;SDS011;55559;48.898;9.184;2022-07-18T02:09:56;5.45;;;0.70;;
49842;SDS011;55559;48.898;9.184;2022-07-18T02:12:25;1.23;;;0.50;;
49842;SDS011;55559;48.898;9.184;2022-07-18T02:14:52;2.55;;;0.73;;
49842;SDS011;55559;48.898;9.184;2022-07-18T02:17:19;8.90;;;1.27;;
49842;SDS011;55559;48.898;9.184;2022-07-18T02:19:46;6.15;;;0.60;;
49842;SDS011;55559;48.898;9.184;2022-07-18T02:22:13;2.85;;;0.73;;
49842;SDS011;55559;48.898;9.184;2022-07-18T02:24:40;4.85;;;0.70;;
49842;SDS011;55559;48.898;9.184;2022-07-18T02:27:07;2.97;;;0.63;;
49842;SDS011;55559;48.898;9.184;2022-07-18T02:29:36;5.35;;;0.60;;
49842;SDS011;55559;48.898;9.184;2022-07-18T02:32:03;8.52;;;0.80;;
49842;SDS011;55559;48.898;9.184;2022-07-18T02:34:30;6.85;;;1.45;;
49842;SDS011;55559;48.898;9.184;2022-07-18T02:36:57;7.72;;;0.73;;
49842;SDS011;55559;48.898;9.184;2022-07-18T02:39:24;2.03;;;0.60;;
49842;SDS011;55559;48.898;9.184;2022-07-18T02:41:51;5.97;;;0.55;;
49842;SDS011;55559;48.898;9.184;2022-07-18T02:44:18;4.55;;;0.60;;
49842;SDS011;55559;48.898;9.184;2022-07-18T02:46:47;7.43;;;0.50;;
49842;SDS011;55559;48.898;9.184;2022-07-18T02:49:14;3.65;;;1.05;;
49842;SDS011;55559;48.898;9.184;2022-07-18T02:51:53;8.00;;;0.57;;
49842;SDS011;55559;48.898;9.184;2022-07-18T02:54:21;1.92;;;0.60;;
49842;SDS011;55559;48.898;9.184;2022-07-18T02:56:49;5.32;;;0.60;;
49842;SDS011;55559;48.898;9.184;2022-07-18T02:59:15;2.67;;;0.70;;
49842;SDS011;55559;48.898;9.184;2022-07-18T03:01:42;5.57;;;0.60;;
49842;SDS011;55559;48.898;9.184;2022-07-18T03:04:11;8.23;;;0.82;;
49842;SDS011;55559;48.898;9.184;2022-07-18T03:06:37;1.25;;;0.50;;
49842;SDS011;55559;48.898;9.184;2022-07-18T03:09:04;2.40;;;0.50;;
49842;SDS011;55559;48.898;9.184;2022-07-18T03:11:31;2.20;;;0.88;;
49842;SDS011;55559;48.898;9.184;2022-07-18T03:13:58;4.88;;;0.52;;
49842;SDS011;55559;48.898;9.184;2022-07-18T03:16:25;6.80;;;0.60;;
49842;SDS011;55559;48.898;9.184;2022-07-18T03:18:51;8.35;;;0.60;;
49842;SDS011;55559;48.898;9.184;2022-07-18T03:21:20;8.65;;;0.70;;
49842;SDS011;55559;48.898;9.184;2022-07-18T03:23:47;2.53;;;0.50;;
49842;SDS011;55559;48.898;9.184;2022-07-18T03:26:14;5.13;;;0.47;;
49842;SDS011;55559;48.898;9.184;2022-07-18T03:28:40;1.92;;;0.52;;
49842;SDS011;55559;48.898;9.184;2022-07-18T03:31:07;2.25;;;0.60;;
49842;SDS011;55559;48.898;9.184;2022-07-18T03:33:34;5.38;;;0.55;;
49842;SDS011;55559;48.898;9.184;2022-07-18T03:36:01;5.32;;;0.60;;
49842;SDS011;55559;48.898;9.184;2022-07-18T03:38:29;3.85;;;0.60;;
49842;SDS011;55559;48.898;9.184;2022-07-18T03:40:56;5.28;;;0.73;;
49842;SDS011;55559;48.898;9.184;2022-07-18T03:43:22;2.75;;;0.70;;
49842;SDS011;55559;48.898;9.184;2022-07-18T03:45:49;4.82;;;0.60;;
49842;SDS011;55559;48.898;9.184;2022-07-18T03:48:16;3.75;;;0.63;;
49842;SDS011;55559;48.898;9.184;2022-07-18T03:50:43;5.05;;;0.73;;
49842;SDS011;55559;48.898;9.184;2022-07-18T03:53:09;4.07;;;0.70;;
49842;SDS011;55559;48.898;9.184;2022-07-18T03:55:37;5.60;;;0.70;;
49842;SDS011;55559;48.898;9.184;2022-07-18T03:58:04;2.70;;;0.65;;
49842;SDS011;55559;48.898;9.184;2022-07-18T04:00:31;9.98;;;0.70;;
49842;SDS011;55559;48.898;9.184;2022-07-18T04:02:59;4.85;;;0.77;;
49842;SDS011;55559;48.898;9.184;2022-07-18T04:05:25;2.92;;;0.57;;
49842;SDS011;55559;48.898;9.184;2022-07-18T04:07:52;2.38;;;0.63;;
49842;SDS011;55559;48.898;9.184;2022-07-18T04:10:21;4.75;;;0.60;;
49842;SDS011;55559;48.898;9.184;2022-07-18T04:12:50;1.95;;;0.50;;
49842;SDS011;55559;48.898;9.184;2022-07-18T04:15:18;9.00;;;1.23;;
49842;SDS011;55559;48.898;9.184;2022-07-18T04:17:45;2.58;;;0.70;;
49842;SDS011;55559;48.898;9.184;2022-07-18T04:20:13;3.95;;;0.88;;
49842;SDS011;55559;48.898;9.184;2022-07-18T04:22:48;2.83;;;0.60;;
49842;SDS011;55559;48.898;9.184;2022-07-18T04:25:16;7.82;;;0.80;;
49842;SDS011;55559;48.898;9.184;2022-07-18T04:27:48;4.65;;;0.70;;
49842;SDS011;55559;48.898;9.184;2022-07-18T04:30:18;8.10;;;0.70;;
49842;SDS011;55559;48.898;9.184;2022-07-18T04:32:45;3.03;;;0.60;;
49842;SDS011;55559;48.898;9.184;2022-07-18T04:35:12;2.78;;;0.47;;
49842;SDS011;55559;48.898;9.184;2022-07-18T04:37:40;3.90;;;0.70;;
49842;SDS011;55559;48.898;9.184;2022-07-18T04:40:08;6.57;;;0.60;;
49842;SDS011;55559;48.898;9.184;2022-07-18T04:42:36;2.33;;;0.50;;
49842;SDS011;55559;48.898;9.184;2022-07-18T04:45:05;3.70;;;0.60;;
49842;SDS011;55559;48.898;9.184;2022-07-18T04:47:33;2.50;;;0.60;;
49842;SDS011;55559;48.898;9.184;2022-07-18T04:50:00;4.82;;;0.50;;
49842;SDS011;55559;48.898;9.184;2022-07-18T04:52:27;3.95;;;0.50;;
49842;SDS011;55559;48.898;9.184;2022-07-18T04:55:05;8.32;;;0.60;;
49842;SDS011;55559;48.898;9.184;2022-07-18T04:57:33;4.60;;;0.52;;
49842;SDS011;55559;48.898;9.184;2022-07-18T05:00:00;4.00;;;0.50;;
49842;SDS011;55559;48.898;9.184;2022-07-18T05:02:29;4.65;;;0.60;;
49842;SDS011;55559;48.898;9.184;2022-07-18T05:04:56;2.65;;;0.60;;
49842;SDS011;55559;48.898;9.184;2022-07-18T05:07:23;2.53;;;0.60;;
49842;SDS011;55559;48.898;9.184;2022-07-18T05:09:50;12.60;;;0.60;;
49842;SDS011;55559;48.898;9.184;2022-07-18T05:12:17;8.90;;;0.75;;
49842;SDS011;55559;48.898;9.184;2022-07-18T05:14:48;5.15;;;0.60;;
49842;SDS011;55559;48.898;9.184;2022-07-18T05:17:15;3.00;;;0.50;;
49842;SDS011;55559;48.898;9.184;2022-07-18T05:19:43;7.50;;;0.70;;
49842;SDS011;55559;48.898;9.184;2022-07-18T05:22:10;8.05;;;0.90;;
49842;SDS011;55559;48.898;9.184;2022-07-18T05:24:38;3.65;;;0.80;;
49842;SDS011;55559;48.898;9.184;2022-07-18T05:27:04;2.92;;;0.75;;
49842;SDS011;55559;48.898;9.184;2022-07-18T05:29:31;4.43;;;0.80;;
49842;SDS011;55559;48.898;9.184;2022-07-18T05:31:58;4.28;;;0.95;;
49842;SDS011;55559;48.898;9.184;2022-07-18T05:34:25;5.65;;;0.88;;
49842;SDS011;55559;48.898;9.184;2022-07-18T05:36:54;9.70;;;0.85;;
49842;SDS011;55559;48.898;9.184;2022-07-18T05:39:21;2.65;;;0.70;;
49842;SDS011;55559;48.898;9.184;2022-07-18T05:41:47;6.75;;;0.63;;
49842;SDS011;55559;48.898;9.184;2022-07-18T05:44:14;7.03;;;0.70;;
49842;SDS011;55559;48.898;9.184;2022-07-18T05:46:41;7.63;;;0.75;;
49842;SDS011;55559;48.898;9.184;2022-07-18T05:49:08;7.60;;;0.70;;
49842;SDS011;55559;48.898;9.184;2022-07-18T05:51:34;6.25;;;0.98;;
49842;SDS011;55559;48.898;9.184;2022-07-18T05:54:03;7.13;;;0.65;;
49842;SDS011;55559;48.898;9.184;2022-07-18T05:56:30;10.10;;;0.65;;
49842;SDS011;55559;48.898;9.184;2022-07-18T05:58:57;9.57;;;0.80;;
49842;SDS011;55559;48.898;9.184;2022-07-18T06:01:23;5.95;;;1.02;;
49842;SDS011;55559;48.898;9.184;2022-07-18T06:03:50;10.27;;;0.80;;
49842;SDS011;55559;48.898;9.184;2022-07-18T06:06:17;10.05;;;0.88;;
49842;SDS011;55559;48.898;9.184;2022-07-18T06:08:44;5.80;;;0.68;;
49842;SDS011;55559;48.898;9.184;2022-07-18T06:11:12;10.18;;;0.80;;
49842;SDS011;55559;48.898;9.184;2022-07-18T06:13:39;2.85;;;0.50;;
49842;SDS011;55559;48.898;9.184;2022-07-18T06:16:07;3.53;;;0.65;;
49842;SDS011;55559;48.898;9.184;2022-07-18T06:18:35;8.02;;;0.60;;
49842;SDS011;55559;48.898;9.184;2022-07-18T06:24:04;5.25;;;0.70;;
49842;SDS011;55559;48.898;9.184;2022-07-18T06:26:35;5.18;;;0.60;;
49842;SDS011;55559;48.898;9.184;2022-07-18T06:29:14;3.85;;;0.43;;
49842;SDS011;55559;48.898;9.184;2022-07-18T06:31:46;2.67;;;0.50;;
49842;SDS011;55559;48.898;9.184;2022-07-18T06:34:15;6.30;;;1.17;;
49842;SDS011;55559;48.898;9.184;2022-07-18T06:36:46;4.80;;;0.47;;
49842;SDS011;55559;48.898;9.184;2022-07-18T06:39:13;5.93;;;0.50;;
49842;SDS011;55559;48.898;9.184;2022-07-18T06:41:45;5.07;;;0.90;;
49842;SDS011;55559;48.898;9.184;2022-07-18T06:44:12;2.47;;;0.50;;
49842;SDS011;55559;48.898;9.184;2022-07-18T06:46:39;6.63;;;0.95;;
49842;SDS011;55559;48.898;9.184;2022-07-18T06:49:06;4.85;;;0.50;;
49842;SDS011;55559;48.898;9.184;2022-07-18T06:51:34;4.63;;;0.65;;
49842;SDS011;55559;48.898;9.184;2022-07-18T06:54:03;4.55;;;0.60;;
49842;SDS011;55559;48.898;9.184;2022-07-18T06:56:32;2.25;;;0.40;;
49842;SDS011;55559;48.898;9.184;2022-07-18T07:09:40;2.25;;;0.40;;
49842;SDS011;55559;48.898;9.184;2022-07-18T07:13:13;7.97;;;0.75;;
49842;SDS011;55559;48.898;9.184;2022-07-18T07:15:53;11.90;;;0.63;;
49842;SDS011;55559;48.898;9.184;2022-07-18T07:18:38;9.20;;;0.50;;
49842;SDS011;55559;48.898;9.184;2022-07-18T07:51:10;8.75;;;0.50;;
49842;SDS011;55559;48.898;9.184;2022-07-18T07:54:13;10.80;;;0.70;;
49842;SDS011;55559;48.898;9.184;2022-07-18T07:57:09;3.22;;;0.40;;
49842;SDS011;55559;48.898;9.184;2022-07-18T08:30:45;6.18;;;0.40;;
49842;SDS011;55559;48.898;9.184;2022-07-18T08:32:10;8.00;;;0.65;;
49842;SDS011;55559;48.898;9.184;2022-07-18T09:05:18;2.58;;;0.47;;
49842;SDS011;55559;48.898;9.184;2022-07-18T09:07:47;13.00;;;0.40;;
49842;SDS011;55559;48.898;9.184;2022-07-18T09:10:49;7.07;;;0.40;;
49842;SDS011;55559;48.898;9.184;2022-07-18T09:13:25;3.35;;;0.35;;
49842;SDS011;55559;48.898;9.184;2022-07-18T09:16:18;4.25;;;0.30;;
49842;SDS011;55559;48.898;9.184;2022-07-18T09:56:35;1.17;;;0.20;;
49842;SDS011;55559;48.898;9.184;2022-07-18T09:59:38;4.32;;;0.30;;
49842;SDS011;55559;48.898;9.184;2022-07-18T10:02:06;0.93;;;0.20;;
49842;SDS011;55559;48.898;9.184;2022-07-18T10:04:34;1.30;;;0.20;;
49842;SDS011;55559;48.898;9.184;2022-07-18T10:07:01;3.42;;;0.30;;
49842;SDS011;55559;48.898;9.184;2022-07-18T10:09:29;3.60;;;0.30;;
49842;SDS011;55559;48.898;9.184;2022-07-18T10:11:59;2.55;;;0.20;;
49842;SDS011;55559;48.898;9.184;2022-07-18T10:14:27;2.72;;;0.30;;
49842;SDS011;55559;48.898;9.184;2022-07-18T10:16:55;10.00;;;0.35;;
49842;SDS011;55559;48.898;9.184;2022-07-18T10:19:23;2.67;;;0.50;;
49842;SDS011;55559;48.898;9.184;2022-07-18T10:21:51;1.23;;;0.32;;
49842;SDS011;55559;48.898;9.184;2022-07-18T10:24:21;6.50;;;0.30;;
49842;SDS011;55559;48.898;9.184;2022-07-18T10:32:39;0.63;;;0.20;;
49842;SDS011;55559;48.898;9.184;2022-07-18T10:35:07;1.02;;;0.32;;
49842;SDS011;55559;48.898;9.184;2022-07-18T10:37:36;15.30;;;0.55;;
49842;SDS011;55559;48.898;9.184;2022-07-18T10:46:01;8.27;;;0.50;;
49842;SDS011;55559;48.898;9.184;2022-07-18T10:48:48;6.63;;;0.30;;
49842;SDS011;55559;48.898;9.184;2022-07-18T10:51:18;19.40;;;0.35;;
49842;SDS011;55559;48.898;9.184;2022-07-18T10:54:06;9.98;;;0.63;;
49842;SDS011;55559;48.898;9.184;2022-07-18T10:59:36;3.45;;;0.30;;
49842;SDS011;55559;48.898;9.184;2022-07-18T11:02:05;27.75;;;0.63;;
49842;SDS011;55559;48.898;9.184;2022-07-18T11:04:39;17.45;;;0.85;;
49842;SDS011;55559;48.898;9.184;2022-07-18T11:07:11;1.98;;;0.20;;
49842;SDS011;55559;48.898;9.184;2022-07-18T11:09:41;2.60;;;0.20;;
49842;SDS011;55559;48.898;9.184;2022-07-18T11:12:23;3.67;;;0.20;;
49842;SDS011;55559;48.898;9.184;2022-07-18T11:17:54;2.42;;;0.30;;
49842;SDS011;55559;48.898;9.184;2022-07-18T11:20:28;1.77;;;0.20;;
49842;SDS011;55559;48.898;9.184;2022-07-18T11:23:01;3.42;;;0.20;;
49842;SDS011;55559;48.898;9.184;2022-07-18T11:25:30;4.22;;;0.20;;
49842;SDS011;55559;48.898;9.184;2022-07-18T11:27:58;0.60;;;0.20;;
49842;SDS011;55559;48.898;9.184;2022-07-18T11:30:27;3.78;;;0.38;;
49842;SDS011;55559;48.898;9.184;2022-07-18T11:32:54;2.45;;;0.20;;
49842;SDS011;55559;48.898;9.184;2022-07-18T11:35:23;4.10;;;0.20;;
49842;SDS011;55559;48.898;9.184;2022-07-18T11:37:51;3.83;;;0.30;;
49842;SDS011;55559;48.898;9.184;2022-07-18T11:40:21;6.78;;;0.20;;
49842;SDS011;55559;48.898;9.184;2022-07-18T11:42:48;1.50;;;0.20;;
49842;SDS011;55559;48.898;9.184;2022-07-18T11:45:16;0.75;;;0.20;;
49842;SDS011;55559;48.898;9.184;2022-07-18T11:47:50;1.98;;;0.20;;
49842;SDS011;55559;48.898;9.184;2022-07-18T11:50:18;0.40;;;0.20;;
49842;SDS011;55559;48.898;9.184;2022-07-18T11:55:34;1.65;;;0.30;;
49842;SDS011;55559;48.898;9.184;2022-07-18T11:58:06;0.80;;;0.20;;
49842;SDS011;55559;48.898;9.184;2022-07-18T12:00:34;2.88;;;0.20;;
49842;SDS011;55559;48.898;9.184;2022-07-18T12:03:11;0.32;;;0.20;;
49842;SDS011;55559;48.898;9.184;2022-07-18T12:05:40;9.82;;;0.30;;
49842;SDS011;55559;48.898;9.184;2022-07-18T12:08:24;1.25;;;0.20;;
49842;SDS011;55559;48.898;9.184;2022-07-18T12:11:03;5.00;;;0.20;;
49842;SDS011;55559;48.898;9.184;2022-07-18T12:13:48;0.40;;;0.20;;
49842;SDS011;55559;48.898;9.184;2022-07-18T12:16:30;2.88;;;0.20;;
49842;SDS011;55559;48.898;9.184;2022-07-18T12:19:02;2.33;;;0.20;;
49842;SDS011;55559;48.898;9.184;2022-07-18T12:21:40;0.95;;;0.20;;
49842;SDS011;55559;48.898;9.184;2022-07-18T12:27:08;6.40;;;0.70;;
49842;SDS011;55559;48.898;9.184;2022-07-18T12:32:41;0.40;;;0.20;;
49842;SDS011;55559;48.898;9.184;2022-07-18T12:35:12;1.08;;;0.20;;
49842;SDS011;55559;48.898;9.184;2022-07-18T12:37:50;2.63;;;0.20;;
49842;SDS011;55559;48.898;9.184;2022-07-18T12:40:19;0.70;;;0.28;;
49842;SDS011;55559;48.898;9.184;2022-07-18T12:42:47;2.58;;;0.20;;
49842;SDS011;55559;48.898;9.184;2022-07-18T12:45:15;2.47;;;0.30;;
49842;SDS011;55559;48.898;9.184;2022-07-18T12:47:43;0.88;;;0.20;;
49842;SDS011;55559;48.898;9.184;2022-07-18T12:50:12;2.08;;;0.20;;
49842;SDS011;55559;48.898;9.184;2022-07-18T12:52:39;8.35;;;0.40;;
49842;SDS011;55559;48.898;9.184;2022-07-18T12:55:07;2.13;;;0.20;;
49842;SDS011;55559;48.898;9.184;2022-07-18T12:57:35;6.45;;;0.30;;
49842;SDS011;55559;48.898;9.184;2022-07-18T13:00:03;7.97;;;0.95;;
49842;SDS011;55559;48.898;9.184;2022-07-18T13:02:31;2.65;;;0.60;;
49842;SDS011;55559;48.898;9.184;2022-07-18T13:04:58;4.53;;;0.32;;
49842;SDS011;55559;48.898;9.184;2022-07-18T13:07:27;2.15;;;0.30;;
49842;SDS011;55559;48.898;9.184;2022-07-18T13:09:55;1.40;;;0.20;;
49842;SDS011;55559;48.898;9.184;2022-07-18T13:12:22;3.20;;;0.40;;
49842;SDS011;55559;48.898;9.184;2022-07-18T13:14:50;1.17;;;0.30;;
49842;SDS011;55559;48.898;9.184;2022-07-18T13:17:17;1.83;;;0.20;;
49842;SDS011;55559;48.898;9.184;2022-07-18T13:19:45;4.78;;;0.30;;
49842;SDS011;55559;48.898;9.184;2022-07-18T13:22:12;3.85;;;0.20;;
49842;SDS011;55559;48.898;9.184;2022-07-18T13:24:41;1.65;;;0.20;;
49842;SDS011;55559;48.898;9.184;2022-07-18T13:27:09;4.32;;;0.30;;
49842;SDS011;55559;48.898;9.184;2022-07-18T13:29:36;8.20;;;0.30;;
49842;SDS011;55559;48.898;9.184;2022-07-18T13:32:04;4.45;;;0.30;;
49842;SDS011;55559;48.898;9.184;2022-07-18T13:34:32;0.75;;;0.20;;
49842;SDS011;55559;48.898;9.184;2022-07-18T13:36:59;2.78;;;0.10;;
49842;SDS011;55559;48.898;9.184;2022-07-18T13:39:27;1.52;;;0.30;;
49842;SDS011;55559;48.898;9.184;2022-07-18T13:41:55;1.67;;;0.20;;
49842;SDS011;55559;48.898;9.184;2022-07-18T13:44:23;3.22;;;0.20;;
49842;SDS011;55559;48.898;9.184;2022-07-18T13:46:50;0.55;;;0.20;;
49842;SDS011;55559;48.898;9.184;2022-07-18T13:49:18;0.90;;;0.20;;
49842;SDS011;55559;48.898;9.184;2022-07-18T13:51:45;0.60;;;0.13;;
49842;SDS011;55559;48.898;9.184;2022-07-18T13:54:13;0.88;;;0.20;;
49842;SDS011;55559;48.898;9.184;2022-07-18T13:56:42;3.45;;;0.20;;
49842;SDS011;55559;48.898;9.184;2022-07-18T13:59:11;0.73;;;0.20;;
49842;SDS011;55559;48.898;9.184;2022-07-18T14:01:38;0.88;;;0.30;;
49842;SDS011;55559;48.898;9.184;2022-07-18T14:04:06;2.60;;;0.22;;
49842;SDS011;55559;48.898;9.184;2022-07-18T14:06:34;1.45;;;0.13;;
49842;SDS011;55559;48.898;9.184;2022-07-18T14:09:02;3.53;;;0.25;;
49842;SDS011;55559;48.898;9.184;2022-07-18T14:11:30;6.43;;;0.20;;
49842;SDS011;55559;48.898;9.184;2022-07-18T14:13:58;3.00;;;0.15;;
49842;SDS011;55559;48.898;9.184;2022-07-18T14:16:28;3.83;;;0.20;;
49842;SDS011;55559;48.898;9.184;2022-07-18T14:18:56;4.20;;;0.20;;
49842;SDS011;55559;48.898;9.184;2022-07-18T14:21:23;1.33;;;0.22;;
49842;SDS011;55559;48.898;9.184;2022-07-18T14:23:51;6.07;;;0.20;;
49842;SDS011;55559;48.898;9.184;2022-07-18T14:26:19;10.30;;;0.50;;
49842;SDS011;55559;48.898;9.184;2022-07-18T14:28:47;1.60;;;0.10;;
49842;SDS011;55559;48.898;9.184;2022-07-18T14:31:15;3.65;;;0.15;;
49842;SDS011;55559;48.898;9.184;2022-07-18T14:33:44;3.45;;;0.20;;
49842;SDS011;55559;48.898;9.184;2022-07-18T14:36:13;22.92;;;0.88;;
49842;SDS011;55559;48.898;9.184;2022-07-18T14:38:40;0.50;;;0.20;;
49842;SDS011;55559;48.898;9.184;2022-07-18T14:41:08;1.77;;;0.20;;
49842;SDS011;55559;48.898;9.184;2022-07-18T14:43:36;3.00;;;0.15;;
49842;SDS011;55559;48.898;9.184;2022-07-18T14:46:03;0.20;;;0.10;;
49842;SDS011;55559;48.898;9.184;2022-07-18T14:48:31;6.65;;;0.20;;
49842;SDS011;55559;48.898;9.184;2022-07-18T14:51:00;5.68;;;0.30;;
49842;SDS011;55559;48.898;9.184;2022-07-18T14:53:28;2.08;;;0.10;;
49842;SDS011;55559;48.898;9.184;2022-07-18T14:55:56;6.47;;;0.20;;
49842;SDS011;55559;48.898;9.184;2022-07-18T14:58:23;0.73;;;0.10;;
49842;SDS011;55559;48.898;9.184;2022-07-18T15:00:50;6.82;;;0.20;;
49842;SDS011;55559;48.898;9.184;2022-07-18T15:03:18;4.28;;;0.20;;
49842;SDS011;55559;48.898;9.184;2022-07-18T15:05:46;4.38;;;0.10;;
49842;SDS011;55559;48.898;9.184;2022-07-18T15:08:15;0.80;;;0.20;;
49842;SDS011;55559;48.898;9.184;2022-07-18T15:10:42;0.73;;;0.10;;
49842;SDS011;55559;48.898;9.184;2022-07-18T15:13:10;6.45;;;0.28;;
49842;SDS011;55559;48.898;9.184;2022-07-18T15:15:37;0.93;;;0.10;;
49842;SDS011;55559;48.898;9.184;2022-07-18T15:18:04;2.85;;;0.20;;
49842;SDS011;55559;48.898;9.184;2022-07-18T15:20:32;2.53;;;0.20;;
49842;SDS011;55559;48.898;9.184;2022-07-18T15:22:59;3.10;;;0.10;;
49842;SDS011;55559;48.898;9.184;2022-07-18T15:25:28;1.20;;;0.10;;
49842;SDS011;55559;48.898;9.184;2022-07-18T15:27:56;0.40;;;0.10;;
49842;SDS011;55559;48.898;9.184;2022-07-18T15:30:23;1.33;;;0.20;;
49842;SDS011;55559;48.898;9.184;2022-07-18T15:32:50;1.27;;;0.20;;
49842;SDS011;55559;48.898;9.184;2022-07-18T15:35:18;2.25;;;0.10;;
49842;SDS011;55559;48.898;9.184;2022-07-18T15:37:52;4.10;;;0.20;;
49842;SDS011;55559;48.898;9.184;2022-07-18T15:40:19;1.25;;;0.30;;
49842;SDS011;55559;48.898;9.184;2022-07-18T15:42:49;1.05;;;0.20;;
49842;SDS011;55559;48.898;9.184;2022-07-18T15:45:16;1.63;;;0.20;;
49842;SDS011;55559;48.898;9.184;2022-07-18T15:47:44;2.13;;;0.50;;
49842;SDS011;55559;48.898;9.184;2022-07-18T15:50:11;3.17;;;0.28;;
49842;SDS011;55559;48.898;9.184;2022-07-18T15:52:40;1.42;;;0.45;;
49842;SDS011;55559;48.898;9.184;2022-07-18T15:55:07;13.38;;;0.30;;
49842;SDS011;55559;48.898;9.184;2022-07-18T15:57:35;2.65;;;0.20;;
49842;SDS011;55559;48.898;9.184;2022-07-18T16:00:06;7.22;;;0.30;;
49842;SDS011;55559;48.898;9.184;2022-07-18T16:02:37;10.35;;;0.40;;
49842;SDS011;55559;48.898;9.184;2022-07-18T16:05:05;3.65;;;0.40;;
49842;SDS011;55559;48.898;9.184;2022-07-18T16:07:33;1.98;;;0.20;;
49842;SDS011;55559;48.898;9.184;2022-07-18T16:10:00;0.57;;;0.30;;
49842;SDS011;55559;48.898;9.184;2022-07-18T16:12:29;0.65;;;0.20;;
49842;SDS011;55559;48.898;9.184;2022-07-18T16:14:56;5.18;;;0.30;;
49842;SDS011;55559;48.898;9.184;2022-07-18T16:17:25;3.80;;;0.35;;
49842;SDS011;55559;48.898;9.184;2022-07-18T16:19:52;1.27;;;0.30;;
49842;SDS011;55559;48.898;9.184;2022-07-18T16:22:20;3.17;;;0.30;;
49842;SDS011;55559;48.898;9.184;2022-07-18T16:24:48;1.80;;;0.30;;
49842;SDS011;55559;48.898;9.184;2022-07-18T16:27:15;2.78;;;0.30;;
49842;SDS011;55559;48.898;9.184;2022-07-18T16:29:47;1.30;;;0.40;;
49842;SDS011;55559;48.898;9.184;2022-07-18T16:32:14;1.33;;;0.28;;
49842;SDS011;55559;48.898;9.184;2022-07-18T16:34:43;8.80;;;0.30;;
49842;SDS011;55559;48.898;9.184;2022-07-18T16:37:11;0.80;;;0.40;;
49842;SDS011;55559;48.898;9.184;2022-07-18T16:39:38;3.00;;;0.30;;
49842;SDS011;55559;48.898;9.184;2022-07-18T16:42:06;5.88;;;0.40;;
49842;SDS011;55559;48.898;9.184;2022-07-18T16:44:34;6.88;;;0.30;;
49842;SDS011;55559;48.898;9.184;2022-07-18T16:47:02;7.03;;;0.30;;
49842;SDS011;55559;48.898;9.184;2022-07-18T16:49:30;1.92;;;0.28;;
49842;SDS011;55559;48.898;9.184;2022-07-18T16:51:59;0.80;;;0.30;;
49842;SDS011;55559;48.898;9.184;2022-07-18T16:54:28;8.85;;;0.60;;
49842;SDS011;55559;48.898;9.184;2022-07-18T16:56:56;1.60;;;0.30;;
49842;SDS011;55559;48.898;9.184;2022-07-18T16:59:24;5.20;;;0.30;;
49842;SDS011;55559;48.898;9.184;2022-07-18T17:01:52;2.67;;;0.30;;
49842;SDS011;55559;48.898;9.184;2022-07-18T17:04:20;8.20;;;0.30;;
49842;SDS011;55559;48.898;9.184;2022-07-18T17:06:48;2.75;;;0.30;;
49842;SDS011;55559;48.898;9.184;2022-07-18T17:09:17;1.45;;;0.30;;
49842;SDS011;55559;48.898;9.184;2022-07-18T17:11:45;3.67;;;0.30;;
49842;SDS011;55559;48.898;9.184;2022-07-18T17:14:13;3.20;;;0.40;;
49842;SDS011;55559;48.898;9.184;2022-07-18T17:16:42;5.82;;;0.57;;
49842;SDS011;55559;48.898;9.184;2022-07-18T17:19:10;5.53;;;0.30;;
49842;SDS011;55559;48.898;9.184;2022-07-18T17:21:37;4.07;;;0.30;;
49842;SDS011;55559;48.898;9.184;2022-07-18T17:24:07;3.85;;;0.40;;
49842;SDS011;55559;48.898;9.184;2022-07-18T17:26:36;2.83;;;0.30;;
49842;SDS011;55559;48.898;9.184;2022-07-18T17:29:04;5.05;;;0.40;;
49842;SDS011;55559;48.898;9.184;2022-07-18T17:31:32;4.32;;;0.25;;
49842;SDS011;55559;48.898;9.184;2022-07-18T17:34:00;10.63;;;0.93;;
49842;SDS011;55559;48.898;9.184;2022-07-18T17:36:28;0.73;;;0.30;;
49842;SDS011;55559;48.898;9.184;2022-07-18T17:39:00;4.57;;;0.30;;
49842;SDS011;55559;48.898;9.184;2022-07-18T17:41:29;2.00;;;0.25;;
49842;SDS011;55559;48.898;9.184;2022-07-18T17:43:58;1.67;;;0.30;;
49842;SDS011;55559;48.898;9.184;2022-07-18T17:46:26;5.90;;;0.38;;
49842;SDS011;55559;48.898;9.184;2022-07-18T17:48:58;4.00;;;0.30;;